createdAt,value
2022-11-21T00:01:31.803Z,24.80
2022-11-21T00:04:00.686Z,24.80
2022-11-21T00:06:29.619Z,24.80
2022-11-21T00:08:58.510Z,24.90
2022-11-21T00:11:27.523Z,24.90
2022-11-21T00:13:56.355Z,24.90
2022-11-21T00:16:25.354Z,24.90
2022-11-21T00:18:54.292Z,25.00
2022-11-21T00:21:23.199Z,25.00
2022-11-21T00:23:53.671Z,25.00
2022-11-21T00:26:22.544Z,25.10
2022-11-21T00:28:51.412Z,25.10
2022-11-21T00:31:25.792Z,25.20
2022-11-21T00:33:54.726Z,25.30
2022-11-21T00:36:23.618Z,25.30
2022-11-21T00:38:52.532Z,25.40
2022-11-21T00:41:21.590Z,25.50
2022-11-21T00:43:50.580Z,25.60
2022-11-21T00:46:19.652Z,25.60
2022-11-21T00:48:48.578Z,25.60
2022-11-21T00:51:17.455Z,25.70
2022-11-21T00:53:46.457Z,25.70
2022-11-21T00:56:15.400Z,25.80
2022-11-21T00:58:44.304Z,25.90
2022-11-21T01:01:16.256Z,26.00
2022-11-21T01:03:47.294Z,26.10
2022-11-21T01:06:17.733Z,26.20
2022-11-21T01:08:47.071Z,26.30
2022-11-21T01:11:18.883Z,26.40
2022-11-21T01:13:48.787Z,26.50
2022-11-21T01:16:23.663Z,26.50
2022-11-21T01:18:53.069Z,26.60
2022-11-21T01:21:40.962Z,26.70
2022-11-21T01:24:13.467Z,26.80
2022-11-21T01:26:42.449Z,26.90
2022-11-21T01:29:11.331Z,27.00
2022-11-21T01:31:40.213Z,27.10
2022-11-21T01:34:12.845Z,27.20
2022-11-21T01:36:41.868Z,27.30
2022-11-21T01:39:12.864Z,27.40
2022-11-21T01:41:46.073Z,27.50
2022-11-21T01:44:23.761Z,27.60
2022-11-21T01:46:53.793Z,27.60
2022-11-21T01:49:30.774Z,27.70
2022-11-21T01:52:07.720Z,27.80
2022-11-21T01:54:45.866Z,27.90
2022-11-21T01:57:21.773Z,27.90
2022-11-21T01:59:50.613Z,28.00
2022-11-21T02:02:22.468Z,28.10
2022-11-21T02:04:53.777Z,28.20
2022-11-21T02:07:25.695Z,28.30
2022-11-21T02:09:59.020Z,28.40
2022-11-21T02:12:41.699Z,28.50
2022-11-21T02:15:14.502Z,28.50
2022-11-21T02:17:44.005Z,28.60
2022-11-21T02:20:17.802Z,28.70
2022-11-21T02:22:54.149Z,28.80
2022-11-21T02:25:35.538Z,28.80
2022-11-21T02:28:07.925Z,28.70
2022-11-21T02:30:40.456Z,28.80
2022-11-21T02:33:16.078Z,28.90
2022-11-21T02:35:45.330Z,28.90
2022-11-21T02:38:17.273Z,29.00
2022-11-21T02:41:27.499Z,29.20
2022-11-21T02:44:32.506Z,29.30
2022-11-21T02:47:01.391Z,29.40
2022-11-21T02:49:43.687Z,29.50
2022-11-21T02:52:12.711Z,29.60
2022-11-21T02:54:41.594Z,29.70
2022-11-21T02:57:10.573Z,29.80
2022-11-21T02:59:39.505Z,29.70
2022-11-21T03:02:08.413Z,29.70
2022-11-21T03:04:37.374Z,29.90
2022-11-21T03:07:06.331Z,29.90
2022-11-21T03:09:35.201Z,29.90
2022-11-21T03:12:08.667Z,29.90
2022-11-21T03:14:38.437Z,29.80
2022-11-21T03:17:07.441Z,29.80
2022-11-21T03:19:36.383Z,29.90
2022-11-21T03:22:05.843Z,29.90
2022-11-21T03:24:34.868Z,30.00
2022-11-21T03:27:03.859Z,30.10
2022-11-21T03:29:32.889Z,30.10
2022-11-21T03:32:01.937Z,30.10
2022-11-21T03:34:30.799Z,30.10
2022-11-21T03:36:59.697Z,30.10
2022-11-21T03:39:28.649Z,30.20
2022-11-21T03:41:57.921Z,30.20
2022-11-21T03:44:27.079Z,30.30
2022-11-21T03:46:56.171Z,30.40
2022-11-21T03:49:25.063Z,30.60
2022-11-21T03:51:53.980Z,30.80
2022-11-21T03:54:22.923Z,30.90
2022-11-21T03:56:51.834Z,31.00
2022-11-21T03:59:20.818Z,31.10
2022-11-21T04:01:49.732Z,31.20
2022-11-21T04:04:18.758Z,31.10
2022-11-21T04:06:47.713Z,31.00
2022-11-21T04:09:16.642Z,30.90
2022-11-21T04:11:45.585Z,30.90
2022-11-21T04:14:14.443Z,31.00
2022-11-21T04:16:43.294Z,31.10
2022-11-21T04:19:12.184Z,31.20
2022-11-21T04:21:43.988Z,31.40
2022-11-21T04:24:13.164Z,31.50
2022-11-21T04:26:42.257Z,31.60
2022-11-21T04:29:11.335Z,31.60
2022-11-21T04:31:40.208Z,31.60
2022-11-21T04:34:12.136Z,31.60
2022-11-21T04:36:43.892Z,31.60
2022-11-21T04:39:12.801Z,31.60
2022-11-21T04:41:41.643Z,31.40
2022-11-21T04:44:10.515Z,31.30
2022-11-21T04:46:39.587Z,31.20
2022-11-21T04:49:08.573Z,31.00
2022-11-21T04:51:37.459Z,31.00
2022-11-21T04:54:06.487Z,30.80
2022-11-21T04:56:35.376Z,30.80
2022-11-21T04:59:04.318Z,30.80
2022-11-21T05:01:33.229Z,30.80
2022-11-21T05:04:02.073Z,30.80
2022-11-21T05:06:31.060Z,30.90
2022-11-21T05:08:59.918Z,31.00
2022-11-21T05:11:47.074Z,31.10
2022-11-21T05:14:16.954Z,31.10
2022-11-21T05:16:45.791Z,31.20
2022-11-21T05:19:14.793Z,31.30
2022-11-21T05:21:43.709Z,31.40
2022-11-21T05:24:12.614Z,31.50
2022-11-21T05:26:41.666Z,31.60
2022-11-21T05:29:10.571Z,31.60
2022-11-21T05:31:39.517Z,31.70
2022-11-21T05:34:08.523Z,31.70
2022-11-21T05:36:37.421Z,31.80
2022-11-21T05:39:07.016Z,31.80
2022-11-21T05:41:35.958Z,31.90
2022-11-21T05:44:04.875Z,32.10
2022-11-21T05:46:33.861Z,32.10
2022-11-21T05:49:02.810Z,32.20
2022-11-21T05:51:31.745Z,32.30
2022-11-21T05:54:01.579Z,32.40
2022-11-21T05:56:30.695Z,32.50
2022-11-21T05:59:00.335Z,32.50
2022-11-21T06:01:47.479Z,32.50
2022-11-21T06:04:16.607Z,32.70
2022-11-21T06:06:45.478Z,32.80
2022-11-21T06:09:14.347Z,32.90
2022-11-21T06:11:43.186Z,32.90
2022-11-21T06:14:12.049Z,32.90
2022-11-21T06:16:43.557Z,33.00
2022-11-21T06:19:12.443Z,33.00
2022-11-21T06:21:42.148Z,32.80
2022-11-21T06:24:16.052Z,32.80
2022-11-21T06:26:48.364Z,32.70
2022-11-21T06:29:17.944Z,32.60
2022-11-21T06:31:46.956Z,32.50
2022-11-21T06:34:15.975Z,32.60
2022-11-21T06:36:45.889Z,32.60
2022-11-21T06:39:14.895Z,32.60
2022-11-21T06:41:45.444Z,32.60
2022-11-21T06:44:14.266Z,32.60
2022-11-21T06:46:45.870Z,32.60
2022-11-21T06:49:18.748Z,32.70
2022-11-21T06:51:47.654Z,32.70
2022-11-21T06:54:17.172Z,32.80
2022-11-21T06:56:46.491Z,32.80
2022-11-21T06:59:15.525Z,32.90
2022-11-21T07:01:44.445Z,33.00
2022-11-21T07:04:13.779Z,33.00
2022-11-21T07:06:42.708Z,33.10
2022-11-21T07:09:32.100Z,33.10
2022-11-21T07:12:22.134Z,33.20
2022-11-21T07:14:51.078Z,33.30
2022-11-21T07:17:20.017Z,33.40
2022-11-21T07:19:49.980Z,33.50
2022-11-21T07:22:18.857Z,33.60
2022-11-21T07:24:47.779Z,33.70
2022-11-21T07:27:16.647Z,33.80
2022-11-21T07:29:45.508Z,33.80
2022-11-21T07:32:14.424Z,33.90
2022-11-21T07:34:43.344Z,34.00
2022-11-21T07:37:12.280Z,34.00
2022-11-21T07:39:41.213Z,34.00
2022-11-21T07:42:10.116Z,34.00
2022-11-21T07:44:39.038Z,33.90
2022-11-21T07:47:07.937Z,34.00
2022-11-21T07:49:36.846Z,33.90
2022-11-21T07:52:05.906Z,33.80
2022-11-21T07:54:34.775Z,33.70
2022-11-21T07:57:03.963Z,33.70
2022-11-21T07:59:32.866Z,33.80
2022-11-21T08:02:01.737Z,33.90
2022-11-21T08:04:31.106Z,33.90
2022-11-21T08:07:00.088Z,33.80
2022-11-21T08:09:35.977Z,33.70
2022-11-21T08:12:08.010Z,33.70
2022-11-21T08:14:37.032Z,33.70
2022-11-21T08:17:07.211Z,33.60
2022-11-21T08:19:36.547Z,33.40
2022-11-21T08:22:05.506Z,33.30
2022-11-21T08:24:34.411Z,33.20
2022-11-21T08:27:03.483Z,33.10
2022-11-21T08:29:32.353Z,33.10
2022-11-21T08:32:01.185Z,32.80
2022-11-21T08:34:33.745Z,32.70
2022-11-21T08:37:03.405Z,32.50
2022-11-21T08:39:32.595Z,32.50
2022-11-21T08:42:04.342Z,32.50
2022-11-21T08:44:36.768Z,32.60
2022-11-21T08:47:06.977Z,32.70
2022-11-21T08:49:37.003Z,32.70
2022-11-21T08:52:06.068Z,32.60
2022-11-21T08:54:34.990Z,32.50
2022-11-21T08:57:03.919Z,32.40
2022-11-21T08:59:33.035Z,32.30
2022-11-21T09:02:01.985Z,32.20
2022-11-21T09:04:31.101Z,32.00
2022-11-21T09:07:00.172Z,32.00
2022-11-21T09:09:29.103Z,31.90
2022-11-21T09:11:58.022Z,31.90
2022-11-21T09:14:45.078Z,31.80
2022-11-21T09:17:33.893Z,31.80
2022-11-21T09:20:02.889Z,31.70
2022-11-21T09:22:31.896Z,31.70
2022-11-21T09:25:00.854Z,31.60
2022-11-21T09:27:29.735Z,31.60
2022-11-21T09:29:58.939Z,31.60
2022-11-21T09:32:27.818Z,31.60
2022-11-21T09:34:56.700Z,31.50
2022-11-21T09:37:26.107Z,31.50
2022-11-21T09:39:54.963Z,31.50
2022-11-21T09:42:54.389Z,31.40
2022-11-21T09:45:34.243Z,31.40
2022-11-21T09:48:15.004Z,31.30
2022-11-21T09:50:53.793Z,31.30
2022-11-21T09:53:30.686Z,31.30
2022-11-21T09:56:12.801Z,31.30
2022-11-21T09:58:52.891Z,31.30
2022-11-21T10:01:21.776Z,31.20
2022-11-21T10:03:56.018Z,31.20
2022-11-21T10:06:32.964Z,31.20
2022-11-21T10:09:24.805Z,31.10
2022-11-21T10:12:11.969Z,31.00
2022-11-21T10:15:08.018Z,31.00
2022-11-21T10:17:58.302Z,31.00
2022-11-21T10:20:48.937Z,30.90
2022-11-21T10:23:39.037Z,30.90
2022-11-21T10:26:37.020Z,30.90
2022-11-21T10:29:23.722Z,30.80
2022-11-21T10:31:56.079Z,30.70
2022-11-21T10:34:31.566Z,30.70
2022-11-21T10:37:27.275Z,30.70
2022-11-21T10:39:57.883Z,30.60
2022-11-21T10:42:45.788Z,30.60
2022-11-21T10:45:19.776Z,30.50
2022-11-21T10:47:54.100Z,30.50
2022-11-21T10:51:03.659Z,30.40
2022-11-21T10:53:51.232Z,30.40
2022-11-21T10:56:24.680Z,30.40
2022-11-21T10:58:59.190Z,30.40
2022-11-21T11:01:34.106Z,30.30
2022-11-21T11:04:29.016Z,30.30
2022-11-21T11:07:01.027Z,30.20
2022-11-21T11:09:35.733Z,30.20
2022-11-21T11:12:26.282Z,30.20
2022-11-21T11:14:57.691Z,30.20
2022-11-21T11:17:32.920Z,30.10
2022-11-21T11:20:06.453Z,30.10
2022-11-21T11:22:35.451Z,30.10
2022-11-21T11:25:06.623Z,30.00
2022-11-21T11:27:38.984Z,30.00
2022-11-21T11:30:09.400Z,30.00
2022-11-21T11:32:42.683Z,29.90
2022-11-21T11:35:24.481Z,29.90
2022-11-21T11:38:04.570Z,29.90
2022-11-21T11:40:45.129Z,29.80
2022-11-21T11:44:50.471Z,29.80
2022-11-21T11:47:32.622Z,29.80
2022-11-21T11:50:23.034Z,29.70
2022-11-21T11:53:09.975Z,29.70
2022-11-21T11:55:51.065Z,29.60
2022-11-21T11:58:26.892Z,29.60
2022-11-21T12:01:01.872Z,29.50
2022-11-21T12:03:47.135Z,29.50
2022-11-21T12:07:17.973Z,29.40
2022-11-21T12:10:16.577Z,29.30
2022-11-21T12:12:54.056Z,29.30
2022-11-21T12:15:54.537Z,29.20
2022-11-21T12:18:52.784Z,29.20
2022-11-21T12:21:22.171Z,29.10
2022-11-21T12:23:52.289Z,29.10
2022-11-21T12:26:39.496Z,29.10
2022-11-21T12:29:33.522Z,29.00
2022-11-21T12:32:29.338Z,28.90
2022-11-21T12:35:16.509Z,28.90
2022-11-21T12:38:03.671Z,28.90
2022-11-21T12:41:32.581Z,28.80
2022-11-21T12:44:15.393Z,28.80
2022-11-21T12:47:12.390Z,28.80
2022-11-21T12:50:38.481Z,28.80
2022-11-21T12:53:54.498Z,28.70
2022-11-21T12:56:53.663Z,28.60
2022-11-21T12:59:22.701Z,28.60
2022-11-21T13:01:56.589Z,28.50
2022-11-21T13:04:47.178Z,28.50
2022-11-21T13:07:16.507Z,28.50
2022-11-21T13:09:50.052Z,28.40
2022-11-21T13:12:42.090Z,28.40
2022-11-21T13:15:38.433Z,28.30
2022-11-21T13:18:22.030Z,28.30
2022-11-21T13:20:53.239Z,28.30
2022-11-21T13:23:42.153Z,28.20
2022-11-21T13:26:32.059Z,28.20
2022-11-21T13:29:12.574Z,28.20
2022-11-21T13:31:44.879Z,28.10
2022-11-21T13:34:39.431Z,28.10
2022-11-21T13:37:08.390Z,28.10
2022-11-21T13:39:38.722Z,28.00
2022-11-21T13:42:35.941Z,28.00
2022-11-21T13:45:51.514Z,28.00
2022-11-21T13:48:51.626Z,28.00
2022-11-21T13:51:38.172Z,27.90
2022-11-21T13:54:25.181Z,27.90
2022-11-21T13:57:29.392Z,27.80
2022-11-21T14:00:07.474Z,27.80
2022-11-21T14:03:11.917Z,27.80
2022-11-21T14:05:51.135Z,27.70
2022-11-21T14:08:25.950Z,27.70
2022-11-21T14:10:58.100Z,27.70
2022-11-21T14:13:31.789Z,27.70
2022-11-21T14:16:25.452Z,27.60
2022-11-21T14:21:35.506Z,27.60
2022-11-21T14:24:14.539Z,27.60
2022-11-21T14:26:50.671Z,27.60
2022-11-21T14:29:39.664Z,27.60
2022-11-21T14:32:16.309Z,27.50
2022-11-21T14:34:45.304Z,27.50
2022-11-21T14:37:15.186Z,27.50
2022-11-21T14:39:45.341Z,27.50
2022-11-21T14:42:19.045Z,27.50
2022-11-21T14:44:48.081Z,27.50
2022-11-21T14:47:26.706Z,27.40
2022-11-21T14:50:02.241Z,27.40
2022-11-21T14:52:35.448Z,27.40
2022-11-21T14:55:30.172Z,27.40
2022-11-21T14:57:59.281Z,27.40
2022-11-21T15:00:58.099Z,27.40
2022-11-21T15:03:23.111Z,27.40
2022-11-21T15:06:06.318Z,27.40
2022-11-21T15:09:18.310Z,27.40
2022-11-21T15:11:35.011Z,27.30
2022-11-21T15:14:16.554Z,27.30
2022-11-21T15:16:50.171Z,27.30
2022-11-21T15:19:26.396Z,27.30
2022-11-21T15:22:01.590Z,27.30
2022-11-21T15:24:41.190Z,27.30
2022-11-21T15:27:47.148Z,27.20
2022-11-21T15:30:16.132Z,27.20
2022-11-21T15:33:06.497Z,27.20
2022-11-21T15:35:44.308Z,27.10
2022-11-21T15:38:28.443Z,27.10
2022-11-21T15:40:59.907Z,27.10
2022-11-21T15:43:45.639Z,27.10
2022-11-21T15:46:35.110Z,27.10
2022-11-21T15:49:30.933Z,27.00
2022-11-21T15:52:11.278Z,27.00
2022-11-21T15:54:40.744Z,27.00
2022-11-21T15:57:11.433Z,27.00
2022-11-21T15:59:40.848Z,27.00
2022-11-21T16:02:17.863Z,26.90
2022-11-21T16:04:46.790Z,27.00
2022-11-21T16:07:15.681Z,27.00
2022-11-21T16:09:46.057Z,26.90
2022-11-21T16:12:15.117Z,26.90
2022-11-21T16:14:44.075Z,26.90
2022-11-21T16:17:12.991Z,26.90
2022-11-21T16:19:42.104Z,26.80
2022-11-21T16:22:10.988Z,26.80
2022-11-21T16:24:39.867Z,26.80
2022-11-21T16:27:08.793Z,26.80
2022-11-21T16:29:37.780Z,26.80
2022-11-21T16:32:06.773Z,26.80
2022-11-21T16:34:35.657Z,26.80
2022-11-21T16:37:07.445Z,26.80
2022-11-21T16:39:37.060Z,26.70
2022-11-21T16:42:06.424Z,26.70
2022-11-21T16:44:35.508Z,26.60
2022-11-21T16:47:08.327Z,26.60
2022-11-21T16:49:43.944Z,26.60
2022-11-21T16:52:13.005Z,26.50
2022-11-21T16:54:42.223Z,26.50
2022-11-21T16:57:11.274Z,26.50
2022-11-21T16:59:40.186Z,26.40
2022-11-21T17:02:09.290Z,26.40
2022-11-21T17:04:38.583Z,26.40
2022-11-21T17:07:07.550Z,26.30
2022-11-21T17:09:36.641Z,26.30
2022-11-21T17:12:05.746Z,26.30
2022-11-21T17:14:34.616Z,26.30
2022-11-21T17:17:03.573Z,26.20
2022-11-21T17:19:32.568Z,26.20
2022-11-21T17:22:01.568Z,26.20
2022-11-21T17:24:30.898Z,26.10
2022-11-21T17:27:03.738Z,26.10
2022-11-21T17:29:32.947Z,26.10
2022-11-21T17:32:01.833Z,26.00
2022-11-21T17:34:33.291Z,26.00
2022-11-21T17:37:02.505Z,26.00
2022-11-21T17:39:32.052Z,26.00
2022-11-21T17:42:01.377Z,25.90
2022-11-21T17:44:31.151Z,25.90
2022-11-21T17:47:03.236Z,25.90
2022-11-21T17:49:38.047Z,25.80
2022-11-21T17:52:08.027Z,25.80
2022-11-21T17:54:37.174Z,25.80
2022-11-21T17:57:06.134Z,25.80
2022-11-21T17:59:35.790Z,25.80
2022-11-21T18:02:05.864Z,25.70
2022-11-21T18:04:35.716Z,25.70
2022-11-21T18:07:04.643Z,25.70
2022-11-21T18:09:33.661Z,25.60
2022-11-21T18:12:02.795Z,25.60
2022-11-21T18:14:32.130Z,25.60
2022-11-21T18:17:01.226Z,25.50
2022-11-21T18:19:30.810Z,25.50
2022-11-21T18:21:59.714Z,25.50
2022-11-21T18:24:30.115Z,25.40
2022-11-21T18:26:59.181Z,25.40
2022-11-21T18:29:36.344Z,25.30
2022-11-21T18:32:07.544Z,25.30
2022-11-21T18:34:36.480Z,25.30
2022-11-21T18:37:05.419Z,25.30
2022-11-21T18:39:34.301Z,25.30
2022-11-21T18:42:03.268Z,25.30
2022-11-21T18:44:32.181Z,25.20
2022-11-21T18:47:01.168Z,25.20
2022-11-21T18:49:30.189Z,25.20
2022-11-21T18:51:59.571Z,25.10
2022-11-21T18:54:28.415Z,25.10
2022-11-21T18:56:58.330Z,25.10
2022-11-21T18:59:27.692Z,25.10
2022-11-21T19:01:57.059Z,25.10
2022-11-21T19:04:26.954Z,25.00
2022-11-21T19:06:56.462Z,25.00
2022-11-21T19:09:29.523Z,25.00
2022-11-21T19:12:01.292Z,25.00
2022-11-21T19:14:30.454Z,25.00
2022-11-21T19:16:59.676Z,25.00
2022-11-21T19:19:35.032Z,24.90
2022-11-21T19:22:06.818Z,24.90
2022-11-21T19:24:35.711Z,24.90
2022-11-21T19:27:04.666Z,24.90
2022-11-21T19:29:34.256Z,24.80
2022-11-21T19:32:03.315Z,24.80
2022-11-21T19:34:32.267Z,24.80
2022-11-21T19:37:01.192Z,24.80
2022-11-21T19:39:31.543Z,24.80
2022-11-21T19:42:00.612Z,24.90
2022-11-21T19:44:29.581Z,24.90
2022-11-21T19:46:58.459Z,24.90
2022-11-21T19:49:27.573Z,24.80
2022-11-21T19:51:56.695Z,24.80
2022-11-21T19:54:25.594Z,24.80
2022-11-21T19:56:54.499Z,24.80
2022-11-21T19:59:23.845Z,24.80
2022-11-21T20:01:53.220Z,24.70
2022-11-21T20:04:22.264Z,24.70
2022-11-21T20:06:51.543Z,24.70
2022-11-21T20:09:27.648Z,24.70
2022-11-21T20:11:58.878Z,24.70
2022-11-21T20:14:27.802Z,24.70
2022-11-21T20:16:57.062Z,24.60
2022-11-21T20:19:27.820Z,24.60
2022-11-21T20:21:57.261Z,24.60
2022-11-21T20:24:26.175Z,24.60
2022-11-21T20:26:55.137Z,24.60
2022-11-21T20:29:24.086Z,24.60
2022-11-21T20:31:53.077Z,24.50
2022-11-21T20:34:22.259Z,24.50
2022-11-21T20:36:52.393Z,24.50
2022-11-21T20:39:22.605Z,24.50
2022-11-21T20:41:51.680Z,24.40
2022-11-21T20:47:11.701Z,24.40
2022-11-21T20:49:40.692Z,24.40
2022-11-21T20:54:58.424Z,24.30
2022-11-21T20:57:28.616Z,24.30
2022-11-21T20:59:57.495Z,24.30
2022-11-21T21:02:26.522Z,24.20
2022-11-21T21:04:55.465Z,24.20
2022-11-21T21:07:24.406Z,24.20
2022-11-21T21:09:54.663Z,24.20
2022-11-21T21:12:25.033Z,24.20
2022-11-21T21:14:53.922Z,24.20
2022-11-21T21:17:22.805Z,24.20
2022-11-21T21:19:51.720Z,24.20
2022-11-21T21:22:20.671Z,24.10
2022-11-21T21:24:49.594Z,24.10
2022-11-21T21:27:18.982Z,24.00
2022-11-21T21:29:47.838Z,24.00
2022-11-21T21:32:16.813Z,24.00
2022-11-21T21:34:45.766Z,24.00
2022-11-21T21:37:14.770Z,24.00
2022-11-21T21:39:43.759Z,24.00
2022-11-21T21:42:12.702Z,24.00
2022-11-21T21:44:41.580Z,24.00
2022-11-21T21:47:12.360Z,24.00
2022-11-21T21:49:42.313Z,23.90
2022-11-21T21:52:11.342Z,23.90
2022-11-21T21:54:40.574Z,23.90
2022-11-21T21:57:09.549Z,24.00
2022-11-21T21:59:38.561Z,23.90
2022-11-21T22:02:07.672Z,23.90
2022-11-21T22:04:36.596Z,23.90
2022-11-21T22:07:06.641Z,23.90
2022-11-21T22:09:35.736Z,23.90
2022-11-21T22:12:04.709Z,24.00
2022-11-21T22:14:33.655Z,23.90
2022-11-21T22:17:02.565Z,23.90
2022-11-21T22:19:31.693Z,23.90
2022-11-21T22:22:00.671Z,23.90
2022-11-21T22:24:29.597Z,23.90
2022-11-21T22:26:58.864Z,23.90
2022-11-21T22:29:27.915Z,23.90
2022-11-21T22:31:57.103Z,23.90
2022-11-21T22:34:25.999Z,23.90
2022-11-21T22:36:54.868Z,23.90
2022-11-21T22:39:23.702Z,23.90
2022-11-21T22:41:56.998Z,23.90
2022-11-21T22:44:28.885Z,23.90
2022-11-21T22:46:57.994Z,23.90
2022-11-21T22:49:27.128Z,23.90
2022-11-21T22:51:56.104Z,23.80
2022-11-21T22:54:24.997Z,23.80
2022-11-21T22:56:53.909Z,23.80
2022-11-21T22:59:22.800Z,23.80
2022-11-21T23:01:51.985Z,23.80
2022-11-21T23:04:20.937Z,23.80
2022-11-21T23:06:49.779Z,23.80
2022-11-21T23:09:18.628Z,23.80
2022-11-21T23:11:47.478Z,23.80
2022-11-21T23:14:16.364Z,23.70
2022-11-21T23:16:45.236Z,23.70
2022-11-21T23:19:14.125Z,23.70
2022-11-21T23:21:43.001Z,23.70
2022-11-21T23:24:12.071Z,23.70
2022-11-21T23:26:41.110Z,23.70
2022-11-21T23:29:10.145Z,23.70
2022-11-21T23:31:39.042Z,23.70
2022-11-21T23:34:08.126Z,23.70
2022-11-21T23:36:37.082Z,23.60
2022-11-21T23:39:06.414Z,23.60
2022-11-21T23:41:35.326Z,23.60
2022-11-21T23:44:04.432Z,23.60
2022-11-21T23:46:33.326Z,23.60
2022-11-21T23:49:02.269Z,23.60
2022-11-21T23:51:31.230Z,23.50
2022-11-21T23:54:00.156Z,23.50
2022-11-21T23:56:29.050Z,23.60
2022-11-21T23:58:57.927Z,23.60
